sensor_id;sensor_type;location;lat;lon;timestamp;temperature;humidity
18581;DHT22;9420;50.876;7.012;2023-10-08T00:00:24;19.40;65.95
18581;DHT22;9420;50.876;7.012;2023-10-08T00:03:11;19.36;66.21
18581;DHT22;9420;50.876;7.012;2023-10-08T00:05:39;19.24;66.46
18581;DHT22;9420;50.876;7.012;2023-10-08T00:08:07;19.36;66.15
18581;DHT22;9420;50.876;7.012;2023-10-08T00:10:36;19.30;66.66
18581;DHT22;9420;50.876;7.012;2023-10-08T00:13:05;19.33;66.43
18581;DHT22;9420;50.876;7.012;2023-10-08T00:15:34;19.17;66.85
18581;DHT22;9420;50.876;7.012;2023-10-08T00:18:02;19.24;66.49
18581;DHT22;9420;50.876;7.012;2023-10-08T00:20:31;19.06;67.29
18581;DHT22;9420;50.876;7.012;2023-10-08T00:23:01;19.06;67.10
18581;DHT22;9420;50.876;7.012;2023-10-08T00:25:32;19.16;66.67
18581;DHT22;9420;50.876;7.012;2023-10-08T00:28:07;19.02;67.11
18581;DHT22;9420;50.876;7.012;2023-10-08T00:30:38;18.94;67.44
18581;DHT22;9420;50.876;7.012;2023-10-08T00:33:06;18.76;67.81
18581;DHT22;9420;50.876;7.012;2023-10-08T00:35:37;18.69;67.98
18581;DHT22;9420;50.876;7.012;2023-10-08T00:38:04;18.72;67.67
18581;DHT22;9420;50.876;7.012;2023-10-08T00:40:36;18.59;68.06
18581;DHT22;9420;50.876;7.012;2023-10-08T00:43:04;18.58;68.18
18581;DHT22;9420;50.876;7.012;2023-10-08T00:45:37;18.54;68.18
18581;DHT22;9420;50.876;7.012;2023-10-08T00:48:11;18.48;68.28
18581;DHT22;9420;50.876;7.012;2023-10-08T00:50:42;18.44;68.44
18581;DHT22;9420;50.876;7.012;2023-10-08T00:53:09;18.44;68.59
18581;DHT22;9420;50.876;7.012;2023-10-08T00:55:42;18.58;68.00
18581;DHT22;9420;50.876;7.012;2023-10-08T00:58:18;18.43;68.42
18581;DHT22;9420;50.876;7.012;2023-10-08T01:00:51;18.38;68.61
18581;DHT22;9420;50.876;7.012;2023-10-08T01:03:25;18.31;68.73
18581;DHT22;9420;50.876;7.012;2023-10-08T01:05:53;18.33;68.66
18581;DHT22;9420;50.876;7.012;2023-10-08T01:08:19;18.26;68.92
18581;DHT22;9420;50.876;7.012;2023-10-08T01:11:16;18.38;68.58
18581;DHT22;9420;50.876;7.012;2023-10-08T01:13:43;18.33;68.71
18581;DHT22;9420;50.876;7.012;2023-10-08T01:16:13;18.43;68.35
18581;DHT22;9420;50.876;7.012;2023-10-08T01:18:40;18.27;68.80
18581;DHT22;9420;50.876;7.012;2023-10-08T01:21:16;18.13;69.02
18581;DHT22;9420;50.876;7.012;2023-10-08T01:23:58;18.36;68.28
18581;DHT22;9420;50.876;7.012;2023-10-08T01:26:27;18.17;68.86
18581;DHT22;9420;50.876;7.012;2023-10-08T01:28:57;18.09;68.99
18581;DHT22;9420;50.876;7.012;2023-10-08T01:31:27;18.00;69.10
18581;DHT22;9420;50.876;7.012;2023-10-08T01:33:54;18.02;69.07
18581;DHT22;9420;50.876;7.012;2023-10-08T01:36:22;18.11;68.62
18581;DHT22;9420;50.876;7.012;2023-10-08T01:38:49;18.02;68.87
18581;DHT22;9420;50.876;7.012;2023-10-08T01:41:17;17.99;68.90
18581;DHT22;9420;50.876;7.012;2023-10-08T01:43:50;18.09;68.58
18581;DHT22;9420;50.876;7.012;2023-10-08T01:46:18;18.07;68.48
18581;DHT22;9420;50.876;7.012;2023-10-08T01:48:47;17.92;68.72
18581;DHT22;9420;50.876;7.012;2023-10-08T01:51:15;18.06;68.10
18581;DHT22;9420;50.876;7.012;2023-10-08T01:53:50;17.93;68.58
18581;DHT22;9420;50.876;7.012;2023-10-08T01:56:20;17.99;68.28
18581;DHT22;9420;50.876;7.012;2023-10-08T01:58:47;18.07;68.10
18581;DHT22;9420;50.876;7.012;2023-10-08T02:01:19;18.00;68.21
18581;DHT22;9420;50.876;7.012;2023-10-08T02:03:45;17.99;68.27
18581;DHT22;9420;50.876;7.012;2023-10-08T02:06:13;17.83;68.80
18581;DHT22;9420;50.876;7.012;2023-10-08T02:08:39;17.75;68.87
18581;DHT22;9420;50.876;7.012;2023-10-08T02:11:06;17.73;69.01
18581;DHT22;9420;50.876;7.012;2023-10-08T02:13:35;17.62;69.28
18581;DHT22;9420;50.876;7.012;2023-10-08T02:16:02;17.55;69.44
18581;DHT22;9420;50.876;7.012;2023-10-08T02:18:29;17.55;69.25
18581;DHT22;9420;50.876;7.012;2023-10-08T02:20:56;17.48;69.52
18581;DHT22;9420;50.876;7.012;2023-10-08T02:23:23;17.45;69.57
18581;DHT22;9420;50.876;7.012;2023-10-08T02:25:50;17.38;69.73
18581;DHT22;9420;50.876;7.012;2023-10-08T02:28:17;17.15;70.37
18581;DHT22;9420;50.876;7.012;2023-10-08T02:30:47;17.23;69.94
18581;DHT22;9420;50.876;7.012;2023-10-08T02:33:13;16.86;71.23
18581;DHT22;9420;50.876;7.012;2023-10-08T02:35:41;16.87;71.36
18581;DHT22;9420;50.876;7.012;2023-10-08T02:38:09;16.99;70.78
18581;DHT22;9420;50.876;7.012;2023-10-08T02:40:37;16.91;71.33
18581;DHT22;9420;50.876;7.012;2023-10-08T02:43:10;16.94;70.83
18581;DHT22;9420;50.876;7.012;2023-10-08T02:45:37;16.84;71.02
18581;DHT22;9420;50.876;7.012;2023-10-08T02:48:07;16.99;70.62
18581;DHT22;9420;50.876;7.012;2023-10-08T02:50:37;16.84;71.79
18581;DHT22;9420;50.876;7.012;2023-10-08T02:53:05;16.83;72.49
18581;DHT22;9420;50.876;7.012;2023-10-08T02:55:35;16.76;72.25
18581;DHT22;9420;50.876;7.012;2023-10-08T02:58:07;16.62;72.73
18581;DHT22;9420;50.876;7.012;2023-10-08T03:00:37;16.72;72.67
18581;DHT22;9420;50.876;7.012;2023-10-08T03:03:07;16.67;72.66
18581;DHT22;9420;50.876;7.012;2023-10-08T03:05:41;16.70;72.70
18581;DHT22;9420;50.876;7.012;2023-10-08T03:08:09;16.84;71.11
18581;DHT22;9420;50.876;7.012;2023-10-08T03:10:37;16.90;72.73
18581;DHT22;9420;50.876;7.012;2023-10-08T03:13:04;16.88;72.28
18581;DHT22;9420;50.876;7.012;2023-10-08T03:15:31;16.88;71.29
18581;DHT22;9420;50.876;7.012;2023-10-08T03:18:05;16.69;72.49
18581;DHT22;9420;50.876;7.012;2023-10-08T03:20:37;16.76;72.02
18581;DHT22;9420;50.876;7.012;2023-10-08T03:23:10;16.72;72.82
18581;DHT22;9420;50.876;7.012;2023-10-08T03:25:52;16.83;71.26
18581;DHT22;9420;50.876;7.012;2023-10-08T03:28:36;16.83;70.95
18581;DHT22;9420;50.876;7.012;2023-10-08T03:31:03;16.60;72.01
18581;DHT22;9420;50.876;7.012;2023-10-08T03:33:31;16.80;70.86
18581;DHT22;9420;50.876;7.012;2023-10-08T03:36:01;16.97;70.28
18581;DHT22;9420;50.876;7.012;2023-10-08T03:38:36;16.96;70.16
18581;DHT22;9420;50.876;7.012;2023-10-08T03:41:15;16.97;70.05
18581;DHT22;9420;50.876;7.012;2023-10-08T03:43:43;16.97;70.21
18581;DHT22;9420;50.876;7.012;2023-10-08T03:46:19;16.99;70.02
18581;DHT22;9420;50.876;7.012;2023-10-08T03:48:47;17.06;69.77
18581;DHT22;9420;50.876;7.012;2023-10-08T03:51:18;16.87;71.09
18581;DHT22;9420;50.876;7.012;2023-10-08T03:53:46;16.77;70.91
18581;DHT22;9420;50.876;7.012;2023-10-08T03:56:25;16.72;71.00
18581;DHT22;9420;50.876;7.012;2023-10-08T03:58:53;16.60;71.34
18581;DHT22;9420;50.876;7.012;2023-10-08T04:01:20;16.49;71.49
18581;DHT22;9420;50.876;7.012;2023-10-08T04:03:49;16.55;72.10
18581;DHT22;9420;50.876;7.012;2023-10-08T04:06:27;16.59;71.50
18581;DHT22;9420;50.876;7.012;2023-10-08T04:09:03;16.55;71.10
18581;DHT22;9420;50.876;7.012;2023-10-08T04:11:42;16.66;71.08
18581;DHT22;9420;50.876;7.012;2023-10-08T04:14:28;16.77;70.51
18581;DHT22;9420;50.876;7.012;2023-10-08T04:16:56;16.90;70.11
18581;DHT22;9420;50.876;7.012;2023-10-08T04:19:24;16.88;70.14
18581;DHT22;9420;50.876;7.012;2023-10-08T04:21:54;16.66;71.26
18581;DHT22;9420;50.876;7.012;2023-10-08T04:24:26;16.60;71.33
18581;DHT22;9420;50.876;7.012;2023-10-08T04:27:00;16.65;70.85
18581;DHT22;9420;50.876;7.012;2023-10-08T04:29:31;16.70;70.66
18581;DHT22;9420;50.876;7.012;2023-10-08T04:31:58;16.76;70.61
18581;DHT22;9420;50.876;7.012;2023-10-08T04:34:33;16.77;70.51
18581;DHT22;9420;50.876;7.012;2023-10-08T04:37:01;16.73;70.79
18581;DHT22;9420;50.876;7.012;2023-10-08T04:39:30;16.62;70.86
18581;DHT22;9420;50.876;7.012;2023-10-08T04:42:00;16.53;71.09
18581;DHT22;9420;50.876;7.012;2023-10-08T04:44:32;16.53;71.16
18581;DHT22;9420;50.876;7.012;2023-10-08T04:46:59;16.52;71.04
18581;DHT22;9420;50.876;7.012;2023-10-08T04:49:30;16.67;70.61
18581;DHT22;9420;50.876;7.012;2023-10-08T04:51:59;16.56;70.83
18581;DHT22;9420;50.876;7.012;2023-10-08T04:54:28;16.56;70.93
18581;DHT22;9420;50.876;7.012;2023-10-08T04:56:57;16.48;71.39
18581;DHT22;9420;50.876;7.012;2023-10-08T04:59:25;16.36;71.81
18581;DHT22;9420;50.876;7.012;2023-10-08T05:01:58;16.24;72.00
18581;DHT22;9420;50.876;7.012;2023-10-08T05:04:47;16.28;71.62
18581;DHT22;9420;50.876;7.012;2023-10-08T05:07:32;16.26;71.97
18581;DHT22;9420;50.876;7.012;2023-10-08T05:10:27;16.29;71.88
18581;DHT22;9420;50.876;7.012;2023-10-08T05:13:09;16.33;71.67
18581;DHT22;9420;50.876;7.012;2023-10-08T05:15:42;16.19;72.51
18581;DHT22;9420;50.876;7.012;2023-10-08T05:18:27;16.24;71.77
18581;DHT22;9420;50.876;7.012;2023-10-08T05:21:14;16.39;71.26
18581;DHT22;9420;50.876;7.012;2023-10-08T05:23:51;16.30;71.76
18581;DHT22;9420;50.876;7.012;2023-10-08T05:26:38;16.08;72.38
18581;DHT22;9420;50.876;7.012;2023-10-08T05:29:08;16.01;72.88
18581;DHT22;9420;50.876;7.012;2023-10-08T05:31:49;15.87;73.43
18581;DHT22;9420;50.876;7.012;2023-10-08T05:34:35;15.97;72.40
18581;DHT22;9420;50.876;7.012;2023-10-08T05:37:09;15.86;73.11
18581;DHT22;9420;50.876;7.012;2023-10-08T05:39:58;15.74;73.61
18581;DHT22;9420;50.876;7.012;2023-10-08T05:42:38;15.83;72.90
18581;DHT22;9420;50.876;7.012;2023-10-08T05:45:14;15.76;73.47
18581;DHT22;9420;50.876;7.012;2023-10-08T05:47:54;15.71;74.08
18581;DHT22;9420;50.876;7.012;2023-10-08T05:50:38;15.66;74.09
18581;DHT22;9420;50.876;7.012;2023-10-08T05:53:04;15.70;74.44
18581;DHT22;9420;50.876;7.012;2023-10-08T05:55:44;15.60;74.81
18581;DHT22;9420;50.876;7.012;2023-10-08T05:58:14;15.69;74.61
18581;DHT22;9420;50.876;7.012;2023-10-08T06:00:50;15.61;74.53
18581;DHT22;9420;50.876;7.012;2023-10-08T06:03:34;15.81;73.47
18581;DHT22;9420;50.876;7.012;2023-10-08T06:06:14;15.94;72.88
18581;DHT22;9420;50.876;7.012;2023-10-08T06:08:51;15.97;72.92
18581;DHT22;9420;50.876;7.012;2023-10-08T06:12:00;15.96;73.35
18581;DHT22;9420;50.876;7.012;2023-10-08T06:14:36;15.93;73.48
18581;DHT22;9420;50.876;7.012;2023-10-08T06:17:19;15.98;73.03
18581;DHT22;9420;50.876;7.012;2023-10-08T06:20:00;16.07;74.08
18581;DHT22;9420;50.876;7.012;2023-10-08T06:22:27;16.07;74.52
18581;DHT22;9420;50.876;7.012;2023-10-08T06:24:53;15.97;75.12
18581;DHT22;9420;50.876;7.012;2023-10-08T06:27:41;15.97;75.16
18581;DHT22;9420;50.876;7.012;2023-10-08T06:30:11;15.88;75.37
18581;DHT22;9420;50.876;7.012;2023-10-08T06:32:42;15.97;75.79
18581;DHT22;9420;50.876;7.012;2023-10-08T06:35:10;16.00;75.03
18581;DHT22;9420;50.876;7.012;2023-10-08T06:37:43;16.07;74.93
18581;DHT22;9420;50.876;7.012;2023-10-08T06:40:11;15.78;74.99
18581;DHT22;9420;50.876;7.012;2023-10-08T06:43:00;15.81;75.56
18581;DHT22;9420;50.876;7.012;2023-10-08T06:45:36;15.77;76.73
18581;DHT22;9420;50.876;7.012;2023-10-08T06:48:05;15.88;74.89
18581;DHT22;9420;50.876;7.012;2023-10-08T06:50:33;15.98;74.61
18581;DHT22;9420;50.876;7.012;2023-10-08T06:53:01;16.21;73.81
18581;DHT22;9420;50.876;7.012;2023-10-08T06:55:32;16.26;73.83
18581;DHT22;9420;50.876;7.012;2023-10-08T06:58:01;16.28;74.79
18581;DHT22;9420;50.876;7.012;2023-10-08T07:00:31;16.28;75.14
18581;DHT22;9420;50.876;7.012;2023-10-08T07:03:06;16.42;73.36
18581;DHT22;9420;50.876;7.012;2023-10-08T07:05:34;16.55;71.82
18581;DHT22;9420;50.876;7.012;2023-10-08T07:08:07;16.72;74.74
18581;DHT22;9420;50.876;7.012;2023-10-08T07:10:34;16.62;74.41
18581;DHT22;9420;50.876;7.012;2023-10-08T07:13:02;16.73;74.75
18581;DHT22;9420;50.876;7.012;2023-10-08T07:15:30;16.83;74.86
18581;DHT22;9420;50.876;7.012;2023-10-08T07:17:57;16.83;75.26
18581;DHT22;9420;50.876;7.012;2023-10-08T07:20:34;17.02;74.36
18581;DHT22;9420;50.876;7.012;2023-10-08T07:23:04;16.86;74.69
18581;DHT22;9420;50.876;7.012;2023-10-08T07:25:35;16.97;73.70
18581;DHT22;9420;50.876;7.012;2023-10-08T07:28:05;17.00;71.08
18581;DHT22;9420;50.876;7.012;2023-10-08T07:30:36;17.10;71.74
18581;DHT22;9420;50.876;7.012;2023-10-08T07:33:05;17.00;75.01
18581;DHT22;9420;50.876;7.012;2023-10-08T07:35:36;17.15;71.21
18581;DHT22;9420;50.876;7.012;2023-10-08T07:38:04;17.18;71.30
18581;DHT22;9420;50.876;7.012;2023-10-08T07:40:35;17.28;70.76
18581;DHT22;9420;50.876;7.012;2023-10-08T07:43:04;17.41;70.57
18581;DHT22;9420;50.876;7.012;2023-10-08T07:45:33;17.48;70.77
18581;DHT22;9420;50.876;7.012;2023-10-08T07:48:01;17.65;70.14
18581;DHT22;9420;50.876;7.012;2023-10-08T07:50:31;17.78;69.80
18581;DHT22;9420;50.876;7.012;2023-10-08T07:52:59;17.73;70.47
18581;DHT22;9420;50.876;7.012;2023-10-08T07:55:29;17.54;71.85
18581;DHT22;9420;50.876;7.012;2023-10-08T07:57:58;17.68;71.52
18581;DHT22;9420;50.876;7.012;2023-10-08T08:00:26;17.58;71.46
18581;DHT22;9420;50.876;7.012;2023-10-08T08:02:56;17.86;70.77
18581;DHT22;9420;50.876;7.012;2023-10-08T08:05:23;17.82;71.32
18581;DHT22;9420;50.876;7.012;2023-10-08T08:07:50;17.73;71.97
18581;DHT22;9420;50.876;7.012;2023-10-08T08:10:17;17.79;72.30
18581;DHT22;9420;50.876;7.012;2023-10-08T08:12:48;18.04;71.05
18581;DHT22;9420;50.876;7.012;2023-10-08T08:15:21;18.10;70.25
18581;DHT22;9420;50.876;7.012;2023-10-08T08:17:49;18.13;70.12
18581;DHT22;9420;50.876;7.012;2023-10-08T08:20:17;18.13;70.15
18581;DHT22;9420;50.876;7.012;2023-10-08T08:22:44;18.51;70.15
18581;DHT22;9420;50.876;7.012;2023-10-08T08:25:15;18.44;70.97
18581;DHT22;9420;50.876;7.012;2023-10-08T08:27:51;18.45;69.28
18581;DHT22;9420;50.876;7.012;2023-10-08T08:30:18;18.58;70.31
18581;DHT22;9420;50.876;7.012;2023-10-08T08:32:46;18.59;70.55
18581;DHT22;9420;50.876;7.012;2023-10-08T08:35:15;18.58;70.48
18581;DHT22;9420;50.876;7.012;2023-10-08T08:37:43;18.29;70.77
18581;DHT22;9420;50.876;7.012;2023-10-08T08:40:12;18.44;70.05
18581;DHT22;9420;50.876;7.012;2023-10-08T08:42:44;18.57;70.34
18581;DHT22;9420;50.876;7.012;2023-10-08T08:45:13;18.54;71.11
18581;DHT22;9420;50.876;7.012;2023-10-08T08:47:40;18.48;70.35
18581;DHT22;9420;50.876;7.012;2023-10-08T08:50:08;18.58;69.91
18581;DHT22;9420;50.876;7.012;2023-10-08T08:52:36;18.76;70.66
18581;DHT22;9420;50.876;7.012;2023-10-08T08:55:04;18.95;69.28
18581;DHT22;9420;50.876;7.012;2023-10-08T08:57:35;18.69;70.23
18581;DHT22;9420;50.876;7.012;2023-10-08T09:00:05;18.58;70.13
18581;DHT22;9420;50.876;7.012;2023-10-08T09:02:34;18.68;71.15
18581;DHT22;9420;50.876;7.012;2023-10-08T09:05:01;18.59;70.85
18581;DHT22;9420;50.876;7.012;2023-10-08T09:07:55;18.84;71.11
18581;DHT22;9420;50.876;7.012;2023-10-08T09:10:22;18.78;70.67
18581;DHT22;9420;50.876;7.012;2023-10-08T09:12:53;19.05;70.68
18581;DHT22;9420;50.876;7.012;2023-10-08T09:15:23;19.24;70.10
18581;DHT22;9420;50.876;7.012;2023-10-08T09:17:51;19.60;69.66
18581;DHT22;9420;50.876;7.012;2023-10-08T09:20:18;20.05;68.88
18581;DHT22;9420;50.876;7.012;2023-10-08T09:23:09;19.84;68.75
18581;DHT22;9420;50.876;7.012;2023-10-08T09:25:38;19.75;67.82
18581;DHT22;9420;50.876;7.012;2023-10-08T09:28:05;19.63;68.72
18581;DHT22;9420;50.876;7.012;2023-10-08T09:30:34;19.89;68.48
18581;DHT22;9420;50.876;7.012;2023-10-08T09:33:04;20.19;66.67
18581;DHT22;9420;50.876;7.012;2023-10-08T09:35:31;20.12;67.29
18581;DHT22;9420;50.876;7.012;2023-10-08T09:37:58;20.35;66.54
18581;DHT22;9420;50.876;7.012;2023-10-08T09:40:27;20.16;66.95
18581;DHT22;9420;50.876;7.012;2023-10-08T09:42:54;20.29;68.07
18581;DHT22;9420;50.876;7.012;2023-10-08T09:45:21;20.05;67.46
18581;DHT22;9420;50.876;7.012;2023-10-08T09:47:50;20.05;68.69
18581;DHT22;9420;50.876;7.012;2023-10-08T09:50:20;20.09;68.26
18581;DHT22;9420;50.876;7.012;2023-10-08T09:52:58;19.75;68.03
18581;DHT22;9420;50.876;7.012;2023-10-08T09:55:29;20.04;69.35
18581;DHT22;9420;50.876;7.012;2023-10-08T09:57:55;20.12;67.77
18581;DHT22;9420;50.876;7.012;2023-10-08T10:00:23;20.09;68.13
18581;DHT22;9420;50.876;7.012;2023-10-08T10:02:58;20.35;67.50
18581;DHT22;9420;50.876;7.012;2023-10-08T10:05:29;20.22;67.97
18581;DHT22;9420;50.876;7.012;2023-10-08T10:07:56;19.99;68.69
18581;DHT22;9420;50.876;7.012;2023-10-08T10:10:27;19.86;68.99
18581;DHT22;9420;50.876;7.012;2023-10-08T10:12:58;20.02;68.90
18581;DHT22;9420;50.876;7.012;2023-10-08T10:15:26;20.14;68.11
18581;DHT22;9420;50.876;7.012;2023-10-08T10:17:58;20.18;68.13
18581;DHT22;9420;50.876;7.012;2023-10-08T10:20:25;20.40;67.20
18581;DHT22;9420;50.876;7.012;2023-10-08T10:22:52;20.59;68.27
18581;DHT22;9420;50.876;7.012;2023-10-08T10:25:34;20.56;67.02
18581;DHT22;9420;50.876;7.012;2023-10-08T10:28:25;20.74;67.60
18581;DHT22;9420;50.876;7.012;2023-10-08T10:30:53;20.71;67.31
18581;DHT22;9420;50.876;7.012;2023-10-08T10:33:20;20.49;67.88
18581;DHT22;9420;50.876;7.012;2023-10-08T10:35:53;20.64;67.77
18581;DHT22;9420;50.876;7.012;2023-10-08T10:38:20;20.69;67.45
18581;DHT22;9420;50.876;7.012;2023-10-08T10:40:51;20.59;68.38
18581;DHT22;9420;50.876;7.012;2023-10-08T10:43:25;20.70;68.10
18581;DHT22;9420;50.876;7.012;2023-10-08T10:45:59;21.15;67.58
18581;DHT22;9420;50.876;7.012;2023-10-08T10:48:31;21.02;67.56
18581;DHT22;9420;50.876;7.012;2023-10-08T10:51:00;20.92;67.11
18581;DHT22;9420;50.876;7.012;2023-10-08T10:53:42;20.87;67.37
18581;DHT22;9420;50.876;7.012;2023-10-08T10:56:12;21.17;66.32
18581;DHT22;9420;50.876;7.012;2023-10-08T10:58:45;21.55;65.16
18581;DHT22;9420;50.876;7.012;2023-10-08T11:01:21;21.22;66.25
18581;DHT22;9420;50.876;7.012;2023-10-08T11:03:49;20.92;66.97
18581;DHT22;9420;50.876;7.012;2023-10-08T11:06:17;21.62;66.19
18581;DHT22;9420;50.876;7.012;2023-10-08T11:08:49;21.27;66.51
18581;DHT22;9420;50.876;7.012;2023-10-08T11:11:17;21.69;65.84
18581;DHT22;9420;50.876;7.012;2023-10-08T11:13:45;22.54;64.80
18581;DHT22;9420;50.876;7.012;2023-10-08T11:16:18;22.81;63.98
18581;DHT22;9420;50.876;7.012;2023-10-08T11:18:47;23.74;62.54
18581;DHT22;9420;50.876;7.012;2023-10-08T11:21:16;24.64;60.17
18581;DHT22;9420;50.876;7.012;2023-10-08T11:23:48;26.45;56.82
18581;DHT22;9420;50.876;7.012;2023-10-08T11:26:21;26.83;55.35
18581;DHT22;9420;50.876;7.012;2023-10-08T11:28:58;27.80;52.07
18581;DHT22;9420;50.876;7.012;2023-10-08T11:31:29;28.68;51.52
18581;DHT22;9420;50.876;7.012;2023-10-08T11:33:59;28.06;51.88
18581;DHT22;9420;50.876;7.012;2023-10-08T11:36:28;27.74;52.32
18581;DHT22;9420;50.876;7.012;2023-10-08T11:38:56;25.80;56.55
18581;DHT22;9420;50.876;7.012;2023-10-08T11:41:28;26.04;55.50
18581;DHT22;9420;50.876;7.012;2023-10-08T11:43:57;25.42;57.27
18581;DHT22;9420;50.876;7.012;2023-10-08T11:46:25;26.00;56.19
18581;DHT22;9420;50.876;7.012;2023-10-08T11:48:53;27.26;54.34
18581;DHT22;9420;50.876;7.012;2023-10-08T11:51:23;28.02;53.05
18581;DHT22;9420;50.876;7.012;2023-10-08T11:53:50;27.94;52.61
18581;DHT22;9420;50.876;7.012;2023-10-08T11:56:17;27.10;54.19
18581;DHT22;9420;50.876;7.012;2023-10-08T11:58:47;27.36;53.31
18581;DHT22;9420;50.876;7.012;2023-10-08T12:01:15;25.74;57.64
18581;DHT22;9420;50.876;7.012;2023-10-08T12:03:43;25.96;56.98
18581;DHT22;9420;50.876;7.012;2023-10-08T12:06:10;25.21;57.24
18581;DHT22;9420;50.876;7.012;2023-10-08T12:08:41;27.06;54.32
18581;DHT22;9420;50.876;7.012;2023-10-08T12:11:10;26.00;55.51
18581;DHT22;9420;50.876;7.012;2023-10-08T12:13:38;25.93;56.37
18581;DHT22;9420;50.876;7.012;2023-10-08T12:16:10;25.17;58.59
18581;DHT22;9420;50.876;7.012;2023-10-08T12:18:45;23.98;60.70
18581;DHT22;9420;50.876;7.012;2023-10-08T12:21:14;23.61;61.86
18581;DHT22;9420;50.876;7.012;2023-10-08T12:23:42;22.69;65.27
18581;DHT22;9420;50.876;7.012;2023-10-08T12:26:11;23.02;64.54
18581;DHT22;9420;50.876;7.012;2023-10-08T12:28:41;22.76;64.83
18581;DHT22;9420;50.876;7.012;2023-10-08T12:31:09;22.86;65.10
18581;DHT22;9420;50.876;7.012;2023-10-08T12:33:35;22.64;65.53
18581;DHT22;9420;50.876;7.012;2023-10-08T12:36:04;22.51;66.70
18581;DHT22;9420;50.876;7.012;2023-10-08T12:38:36;22.44;65.78
18581;DHT22;9420;50.876;7.012;2023-10-08T12:41:03;22.27;66.32
18581;DHT22;9420;50.876;7.012;2023-10-08T12:43:37;22.30;66.36
18581;DHT22;9420;50.876;7.012;2023-10-08T12:46:04;22.14;67.19
18581;DHT22;9420;50.876;7.012;2023-10-08T12:48:36;22.21;66.34
18581;DHT22;9420;50.876;7.012;2023-10-08T12:51:04;22.45;66.86
18581;DHT22;9420;50.876;7.012;2023-10-08T12:53:32;22.10;67.14
18581;DHT22;9420;50.876;7.012;2023-10-08T12:56:02;21.90;67.82
18581;DHT22;9420;50.876;7.012;2023-10-08T12:58:32;21.42;68.92
18581;DHT22;9420;50.876;7.012;2023-10-08T13:01:04;21.17;68.64
18581;DHT22;9420;50.876;7.012;2023-10-08T13:03:32;21.43;69.26
18581;DHT22;9420;50.876;7.012;2023-10-08T13:06:08;21.34;69.70
18581;DHT22;9420;50.876;7.012;2023-10-08T13:08:41;21.14;69.52
18581;DHT22;9420;50.876;7.012;2023-10-08T13:11:07;21.29;69.53
18581;DHT22;9420;50.876;7.012;2023-10-08T13:13:34;21.59;68.91
18581;DHT22;9420;50.876;7.012;2023-10-08T13:16:02;21.93;69.33
18581;DHT22;9420;50.876;7.012;2023-10-08T13:18:32;21.87;68.40
18581;DHT22;9420;50.876;7.012;2023-10-08T13:20:59;22.06;67.84
18581;DHT22;9420;50.876;7.012;2023-10-08T13:23:27;22.03;68.25
18581;DHT22;9420;50.876;7.012;2023-10-08T13:25:54;22.45;67.14
18581;DHT22;9420;50.876;7.012;2023-10-08T13:28:24;23.64;64.86
18581;DHT22;9420;50.876;7.012;2023-10-08T13:30:52;22.96;66.05
18581;DHT22;9420;50.876;7.012;2023-10-08T13:33:19;22.43;66.89
18581;DHT22;9420;50.876;7.012;2023-10-08T13:35:47;22.27;67.45
18581;DHT22;9420;50.876;7.012;2023-10-08T13:38:16;22.25;67.60
18581;DHT22;9420;50.876;7.012;2023-10-08T13:40:46;21.75;69.09
18581;DHT22;9420;50.876;7.012;2023-10-08T13:43:26;21.77;68.58
18581;DHT22;9420;50.876;7.012;2023-10-08T13:46:00;21.69;68.40
18581;DHT22;9420;50.876;7.012;2023-10-08T13:48:29;21.86;68.26
18581;DHT22;9420;50.876;7.012;2023-10-08T13:50:58;22.03;68.38
18581;DHT22;9420;50.876;7.012;2023-10-08T13:53:25;21.97;69.01
18581;DHT22;9420;50.876;7.012;2023-10-08T13:55:56;22.69;67.28
18581;DHT22;9420;50.876;7.012;2023-10-08T13:58:26;22.58;68.14
18581;DHT22;9420;50.876;7.012;2023-10-08T14:00:53;22.22;68.01
18581;DHT22;9420;50.876;7.012;2023-10-08T14:03:20;22.24;68.03
18581;DHT22;9420;50.876;7.012;2023-10-08T14:05:47;22.35;67.25
18581;DHT22;9420;50.876;7.012;2023-10-08T14:08:16;22.59;67.24
18581;DHT22;9420;50.876;7.012;2023-10-08T14:10:43;22.86;67.20
18581;DHT22;9420;50.876;7.012;2023-10-08T14:13:11;23.85;64.06
18581;DHT22;9420;50.876;7.012;2023-10-08T14:15:38;24.06;63.77
18581;DHT22;9420;50.876;7.012;2023-10-08T14:18:10;23.92;65.47
18581;DHT22;9420;50.876;7.012;2023-10-08T14:20:42;23.54;67.90
18581;DHT22;9420;50.876;7.012;2023-10-08T14:23:12;23.47;69.14
18581;DHT22;9420;50.876;7.012;2023-10-08T14:25:42;22.79;69.80
18581;DHT22;9420;50.876;7.012;2023-10-08T14:28:11;22.37;70.14
18581;DHT22;9420;50.876;7.012;2023-10-08T14:30:48;22.40;69.11
18581;DHT22;9420;50.876;7.012;2023-10-08T14:33:19;22.13;70.53
18581;DHT22;9420;50.876;7.012;2023-10-08T14:35:50;22.08;70.58
18581;DHT22;9420;50.876;7.012;2023-10-08T14:38:34;22.10;71.07
18581;DHT22;9420;50.876;7.012;2023-10-08T14:41:18;22.08;71.15
18581;DHT22;9420;50.876;7.012;2023-10-08T14:44:04;21.94;71.19
18581;DHT22;9420;50.876;7.012;2023-10-08T14:46:32;21.70;72.01
18581;DHT22;9420;50.876;7.012;2023-10-08T14:49:03;21.63;71.87
18581;DHT22;9420;50.876;7.012;2023-10-08T14:51:36;21.58;71.01
18581;DHT22;9420;50.876;7.012;2023-10-08T14:54:04;21.76;71.57
18581;DHT22;9420;50.876;7.012;2023-10-08T14:56:32;21.65;71.56
18581;DHT22;9420;50.876;7.012;2023-10-08T14:58:59;21.63;71.58
18581;DHT22;9420;50.876;7.012;2023-10-08T15:01:27;21.48;72.02
18581;DHT22;9420;50.876;7.012;2023-10-08T15:03:54;21.28;72.75
18581;DHT22;9420;50.876;7.012;2023-10-08T15:06:21;20.98;72.97
18581;DHT22;9420;50.876;7.012;2023-10-08T15:08:49;21.18;72.12
18581;DHT22;9420;50.876;7.012;2023-10-08T15:11:17;21.70;69.54
18581;DHT22;9420;50.876;7.012;2023-10-08T15:13:44;21.70;69.55
18581;DHT22;9420;50.876;7.012;2023-10-08T15:16:11;21.58;70.46
18581;DHT22;9420;50.876;7.012;2023-10-08T15:18:40;21.41;70.68
18581;DHT22;9420;50.876;7.012;2023-10-08T15:21:08;21.46;70.28
18581;DHT22;9420;50.876;7.012;2023-10-08T15:23:35;21.41;70.63
18581;DHT22;9420;50.876;7.012;2023-10-08T15:26:03;21.27;70.91
18581;DHT22;9420;50.876;7.012;2023-10-08T15:28:30;21.31;71.18
18581;DHT22;9420;50.876;7.012;2023-10-08T15:30:57;21.85;70.26
18581;DHT22;9420;50.876;7.012;2023-10-08T15:33:24;22.03;68.84
18581;DHT22;9420;50.876;7.012;2023-10-08T15:35:53;22.25;68.33
18581;DHT22;9420;50.876;7.012;2023-10-08T15:38:19;21.87;69.21
18581;DHT22;9420;50.876;7.012;2023-10-08T15:40:48;21.76;69.54
18581;DHT22;9420;50.876;7.012;2023-10-08T15:43:14;21.85;69.51
18581;DHT22;9420;50.876;7.012;2023-10-08T15:45:41;21.77;69.69
18581;DHT22;9420;50.876;7.012;2023-10-08T15:48:10;21.73;69.84
18581;DHT22;9420;50.876;7.012;2023-10-08T15:50:37;21.45;70.88
18581;DHT22;9420;50.876;7.012;2023-10-08T15:53:06;21.58;69.93
18581;DHT22;9420;50.876;7.012;2023-10-08T15:55:33;21.38;70.41
18581;DHT22;9420;50.876;7.012;2023-10-08T15:57:59;21.21;71.48
18581;DHT22;9420;50.876;7.012;2023-10-08T16:00:26;21.10;71.84
18581;DHT22;9420;50.876;7.012;2023-10-08T16:02:53;21.07;71.67
18581;DHT22;9420;50.876;7.012;2023-10-08T16:05:20;20.91;71.96
18581;DHT22;9420;50.876;7.012;2023-10-08T16:07:48;20.76;72.25